Time;durP1;ratioP1;P1;durP2;ratioP2;P2;SDS_P1;SDS_P2;PMS_P1;PMS_P2;Temp;Humidity;BMP_temperature;BMP_pressure;BME280_temperature;BME280_humidity;BME280_pressure;Samples;Min_cycle;Max_cycle;Signal;HPM_P1;HPM_P2
2022/11/16 00:02:08;;;;;;;5.78;3.40;;;10.00;99.90;;;;;;5052998;28;20175;-78
2022/11/16 00:04:34;;;;;;;5.88;3.05;;;10.10;99.90;;;;;;5052752;28;20140;-78
2022/11/16 00:07:01;;;;;;;5.38;3.25;;;10.10;99.90;;;;;;5053564;28;20129;-83
2022/11/16 00:09:30;;;;;;;5.97;3.20;;;10.10;99.90;;;;;;5052254;28;20530;-83
2022/11/16 00:12:00;;;;;;;6.13;3.35;;;10.10;99.90;;;;;;5053145;28;20036;-83
2022/11/16 00:14:31;;;;;;;6.82;3.60;;;10.10;99.90;;;;;;5052959;28;20044;-83
2022/11/16 00:16:57;;;;;;;7.50;3.53;;;10.10;99.90;;;;;;5049550;28;20113;-83
2022/11/16 00:19:24;;;;;;;6.63;3.85;;;10.20;99.90;;;;;;5089587;22;20052;-79
2022/11/16 00:21:51;;;;;;;5.95;3.58;;;10.20;99.90;;;;;;5092448;28;20134;-79
2022/11/16 00:24:20;;;;;;;8.32;3.60;;;10.20;99.90;;;;;;5076146;28;20535;-78
2022/11/16 00:26:47;;;;;;;7.32;4.03;;;10.20;99.90;;;;;;5093056;28;20043;-78
2022/11/16 00:29:14;;;;;;;7.82;4.07;;;10.20;99.90;;;;;;5075382;28;20119;-78
2022/11/16 00:31:40;;;;;;;5.72;3.40;;;10.20;99.90;;;;;;5092357;28;20046;-78
2022/11/16 00:34:05;;;;;;;8.60;4.10;;;10.20;99.90;;;;;;5093275;28;20126;-78
2022/11/16 00:36:31;;;;;;;6.75;3.95;;;10.20;99.90;;;;;;5075744;28;20546;-78
2022/11/16 00:38:57;;;;;;;8.05;4.50;;;10.20;99.90;;;;;;5042291;28;20043;-78
2022/11/16 00:41:22;;;;;;;12.40;5.43;;;10.30;99.90;;;;;;5092368;28;20486;-78
2022/11/16 00:43:48;;;;;;;8.75;4.75;;;10.30;99.90;;;;;;5086041;28;20068;-79
2022/11/16 00:46:14;;;;;;;7.22;4.20;;;10.20;99.90;;;;;;5090493;28;20047;-79
2022/11/16 00:48:39;;;;;;;7.47;4.72;;;10.30;99.90;;;;;;5076116;28;20051;-79
2022/11/16 00:51:05;;;;;;;8.18;4.57;;;10.20;99.90;;;;;;5092747;28;20048;-79
2022/11/16 00:53:31;;;;;;;8.43;4.53;;;10.50;99.90;;;;;;5093285;28;20527;-79
2022/11/16 00:55:57;;;;;;;10.07;4.45;;;10.80;99.90;;;;;;5092947;28;20075;-82
2022/11/16 00:58:23;;;;;;;7.10;4.32;;;10.40;99.90;;;;;;5075794;28;20453;-84
2022/11/16 01:00:48;;;;;;;9.07;4.80;;;10.30;99.90;;;;;;5075793;28;20126;-84
2022/11/16 01:03:14;;;;;;;9.18;4.13;;;10.50;99.90;;;;;;5092561;28;20068;-84
2022/11/16 01:05:40;;;;;;;7.20;4.30;;;10.30;99.90;;;;;;5075850;28;20046;-84
2022/11/16 01:08:06;;;;;;;7.57;4.65;;;10.30;99.90;;;;;;5092759;28;20055;-84
2022/11/16 01:10:32;;;;;;;9.77;4.45;;;10.40;99.90;;;;;;5092513;28;20495;-84
2022/11/16 01:12:58;;;;;;;7.53;4.70;;;10.30;99.90;;;;;;5092576;28;20047;-80
2022/11/16 01:15:25;;;;;;;8.43;4.70;;;10.30;99.90;;;;;;5092921;28;20028;-79
2022/11/16 01:17:52;;;;;;;10.35;5.18;;;10.30;99.90;;;;;;5076320;28;20085;-79
2022/11/16 01:20:21;;;;;;;8.77;4.93;;;10.20;99.90;;;;;;5091938;28;20060;-79
2022/11/16 01:22:47;;;;;;;11.55;5.60;;;10.30;99.90;;;;;;5075615;28;20074;-79
2022/11/16 01:25:13;;;;;;;9.52;5.32;;;10.30;99.90;;;;;;5076066;28;20079;-79
2022/11/16 01:27:40;;;;;;;9.18;5.93;;;10.30;99.90;;;;;;5092564;28;20040;-79
2022/11/16 01:30:08;;;;;;;10.82;5.63;;;10.30;99.90;;;;;;5079092;28;20044;-80
2022/11/16 01:32:34;;;;;;;8.52;5.15;;;10.40;99.90;;;;;;5096322;28;20040;-80
2022/11/16 01:35:00;;;;;;;10.57;5.25;;;10.30;99.90;;;;;;5096960;28;20089;-81
2022/11/16 01:37:26;;;;;;;9.10;5.38;;;10.40;99.90;;;;;;5096777;28;20086;-81
2022/11/16 01:39:52;;;;;;;8.25;4.78;;;10.40;99.90;;;;;;5096738;28;20032;-81
2022/11/16 01:42:20;;;;;;;10.15;5.60;;;10.30;99.90;;;;;;5095806;28;20499;-81
2022/11/16 01:44:46;;;;;;;10.95;6.32;;;10.30;99.90;;;;;;5095677;28;20046;-81
2022/11/16 01:47:13;;;;;;;10.80;5.85;;;10.30;99.90;;;;;;5096676;28;20047;-81
2022/11/16 01:49:43;;;;;;;10.20;5.75;;;10.40;99.90;;;;;;5096525;28;20040;-82
2022/11/16 01:52:13;;;;;;;11.02;6.15;;;10.30;99.90;;;;;;5077978;28;20499;-81
2022/11/16 01:54:44;;;;;;;9.23;5.65;;;10.30;99.90;;;;;;5095818;28;20105;-81
2022/11/16 01:57:15;;;;;;;11.13;6.38;;;10.30;99.90;;;;;;5096372;28;20071;-82
2022/11/16 01:59:43;;;;;;;11.10;6.00;;;10.30;99.90;;;;;;5079747;28;20127;-82
2022/11/16 02:02:08;;;;;;;11.38;5.90;;;10.40;99.90;;;;;;5078895;28;20036;-81
2022/11/16 02:04:34;;;;;;;11.27;5.63;;;10.40;99.90;;;;;;5095633;28;20123;-84
2022/11/16 02:07:11;;;;;;;11.02;6.28;;;10.40;99.90;;;;;;5079538;28;20048;-84
2022/11/16 02:09:54;;;;;;;10.30;5.75;;;10.40;99.90;;;;;;5096436;28;20040;-84
2022/11/16 02:12:57;;;;;;;11.00;6.03;;;10.40;99.90;;;;;;5079105;28;20068;-84
2022/11/16 02:15:26;;;;;;;8.32;5.35;;;10.40;99.90;;;;;;5095639;28;20050;-84
2022/11/16 02:18:07;;;;;;;11.32;6.15;;;10.40;99.90;;;;;;5095846;28;20044;-84
2022/11/16 02:20:57;;;;;;;9.82;5.97;;;10.40;99.90;;;;;;5115583;28;20491;-84
2022/11/16 02:23:50;;;;;;;12.88;6.50;;;10.40;99.90;;;;;;5096647;28;20100;-84
2022/11/16 02:26:31;;;;;;;11.20;6.70;;;10.40;99.90;;;;;;5106003;28;20452;-85
2022/11/16 02:29:31;;;;;;;10.38;5.95;;;10.50;99.90;;;;;;5058142;28;20041;-85
2022/11/16 02:32:26;;;;;;;12.40;6.10;;;10.40;99.90;;;;;;5091882;28;20067;-84
2022/11/16 02:35:08;;;;;;;9.90;6.20;;;10.40;99.90;;;;;;5094620;28;20050;-84
2022/11/16 02:37:38;;;;;;;10.13;6.03;;;10.40;99.90;;;;;;5111453;28;20067;-80
2022/11/16 02:40:09;;;;;;;10.13;6.03;;;10.70;99.90;;;;;;5115319;28;20048;-80
2022/11/16 02:42:44;;;;;;;14.68;6.97;;;10.40;99.90;;;;;;5115556;28;20540;-80
2022/11/16 02:45:15;;;;;;;9.98;5.97;;;10.40;99.90;;;;;;5108018;28;20441;-84
2022/11/16 02:47:43;;;;;;;11.38;5.95;;;10.40;99.90;;;;;;5097925;28;20054;-80
2022/11/16 02:50:15;;;;;;;10.93;5.90;;;10.40;99.90;;;;;;5084887;28;20093;-79
2022/11/16 02:52:40;;;;;;;8.90;5.70;;;10.50;99.90;;;;;;5094726;28;20480;-80
2022/11/16 02:55:07;;;;;;;10.18;5.95;;;10.50;99.90;;;;;;5081687;28;20085;-80
2022/11/16 02:58:04;;;;;;;9.63;6.25;;;10.50;99.90;;;;;;5112733;28;20039;-80
2022/11/16 03:00:42;;;;;;;13.35;5.85;;;10.50;99.90;;;;;;5115220;28;20535;-80
2022/11/16 03:03:28;;;;;;;13.75;6.57;;;10.50;99.90;;;;;;5115251;28;20492;-81
2022/11/16 03:06:01;;;;;;;11.60;6.50;;;10.50;99.90;;;;;;5111616;28;20053;-81
2022/11/16 03:08:30;;;;;;;10.90;5.95;;;10.50;99.90;;;;;;5114258;28;20456;-81
2022/11/16 03:13:48;;;;;;;9.27;5.55;;;10.50;99.90;;;;;;5114926;28;20045;-81
2022/11/16 03:16:30;;;;;;;11.07;6.13;;;10.50;99.90;;;;;;5085175;28;20543;-81
2022/11/16 03:18:59;;;;;;;11.15;5.90;;;10.50;99.90;;;;;;5069547;28;20080;-81
2022/11/16 03:21:48;;;;;;;10.23;5.38;;;10.50;99.90;;;;;;5089078;28;20054;-81
2022/11/16 03:24:15;;;;;;;10.48;6.15;;;10.50;99.90;;;;;;5094316;28;20472;-81
2022/11/16 03:27:02;;;;;;;11.18;6.28;;;10.50;99.90;;;;;;5093662;28;20075;-80
2022/11/16 03:29:50;;;;;;;8.50;5.32;;;10.50;99.90;;;;;;5094522;28;20429;-80
2022/11/16 03:32:34;;;;;;;10.13;6.20;;;10.50;99.90;;;;;;5094335;28;20043;-80
2022/11/16 03:35:05;;;;;;;10.00;5.38;;;10.50;99.90;;;;;;5093634;28;20048;-81
2022/11/16 03:37:32;;;;;;;10.23;5.53;;;10.50;99.90;;;;;;5090787;28;20040;-81
2022/11/16 03:40:00;;;;;;;9.82;5.40;;;10.50;99.90;;;;;;5073380;28;20048;-80
2022/11/16 03:42:27;;;;;;;9.98;5.45;;;10.50;99.90;;;;;;5073659;28;20040;-80
2022/11/16 03:44:54;;;;;;;10.77;6.10;;;10.50;99.90;;;;;;5073532;28;20048;-84
2022/11/16 03:47:19;;;;;;;8.35;5.38;;;10.50;99.90;;;;;;5090046;28;20130;-84
2022/11/16 03:49:46;;;;;;;9.98;5.63;;;10.50;99.90;;;;;;5076356;28;20567;-84
2022/11/16 03:52:14;;;;;;;12.15;5.90;;;10.50;99.90;;;;;;5092981;28;20036;-84
2022/11/16 03:54:40;;;;;;;8.82;5.53;;;10.50;99.90;;;;;;5076972;28;20046;-84
2022/11/16 03:57:05;;;;;;;8.10;5.55;;;10.50;99.90;;;;;;5076430;28;20409;-84
2022/11/16 03:59:32;;;;;;;12.75;5.90;;;10.50;99.90;;;;;;5093051;28;20051;-82
2022/11/16 04:01:57;;;;;;;9.25;5.40;;;10.50;99.90;;;;;;5093222;28;20123;-82
2022/11/16 04:28:11;;;;;;;8.38;5.30;;;10.60;99.90;;;;;;5108684;28;20047;-79
2022/11/16 04:29:09;;;;;;;8.23;4.95;;;10.50;99.90;;;;;;5093995;28;20043;-79
2022/11/16 04:39:46;;;;;;;9.05;4.70;;;11.00;99.90;;;;;;5095847;28;20406;-81
2022/11/16 04:42:18;;;;;;;6.88;4.70;;;10.60;99.90;;;;;;5111601;28;20047;-81
2022/11/16 04:47:29;;;;;;;8.30;4.32;;;10.60;99.90;;;;;;5092707;28;20377;-81
2022/11/16 04:49:54;;;;;;;9.27;4.75;;;10.60;99.90;;;;;;5090359;28;20100;-84
2022/11/16 04:52:20;;;;;;;9.05;4.78;;;10.60;99.90;;;;;;5100972;28;20038;-84
2022/11/16 04:54:46;;;;;;;9.73;5.20;;;10.50;99.90;;;;;;5095852;28;20035;-84
2022/11/16 04:57:11;;;;;;;8.82;4.85;;;10.60;99.90;;;;;;5095796;28;20035;-84
2022/11/16 04:59:37;;;;;;;9.10;4.70;;;10.60;99.90;;;;;;5083527;28;20086;-84
2022/11/16 05:02:09;;;;;;;7.50;4.40;;;10.60;99.90;;;;;;5093911;28;20050;-84
2022/11/16 05:04:36;;;;;;;9.00;5.25;;;10.60;99.90;;;;;;5111545;28;20092;-84
2022/11/16 05:07:02;;;;;;;8.32;4.63;;;;;;;;;;5098704;28;20040;-79
2022/11/16 05:09:28;;;;;;;6.93;4.32;;;10.60;99.90;;;;;;5098559;28;20409;-79
2022/11/16 05:11:53;;;;;;;8.15;4.93;;;10.60;99.90;;;;;;5112351;28;20046;-79
2022/11/16 05:14:19;;;;;;;8.55;4.90;;;10.60;99.90;;;;;;5078931;28;20046;-79
2022/11/16 05:16:45;;;;;;;7.05;5.18;;;10.60;99.90;;;;;;5091989;28;20533;-79
2022/11/16 05:21:54;;;;;;;8.98;5.28;;;10.70;99.90;;;;;;5063766;28;20079;-79
2022/11/16 05:24:32;;;;;;;8.27;5.03;;;10.60;99.90;;;;;;5104215;28;20067;-81
2022/11/16 05:26:59;;;;;;;9.00;5.63;;;10.60;99.90;;;;;;5083900;28;20065;-82
2022/11/16 05:29:24;;;;;;;7.22;4.72;;;10.70;99.90;;;;;;5092337;28;20044;-81
2022/11/16 05:31:50;;;;;;;8.70;4.45;;;10.60;99.90;;;;;;5112575;28;20046;-81
2022/11/16 05:34:16;;;;;;;7.63;4.93;;;10.60;99.90;;;;;;5095758;28;20084;-82
2022/11/16 05:36:41;;;;;;;9.38;5.20;;;10.60;99.90;;;;;;5110367;28;20503;-82
2022/11/16 05:39:07;;;;;;;7.88;4.55;;;10.60;99.90;;;;;;5112589;28;20040;-82
2022/11/16 05:41:33;;;;;;;7.60;4.13;;;10.70;99.90;;;;;;5096732;28;20086;-81
2022/11/16 05:43:58;;;;;;;8.13;3.90;;;10.60;99.90;;;;;;5075116;28;20582;-81
2022/11/16 05:46:24;;;;;;;6.00;3.60;;;;;;;;;;5041668;28;20039;-81
2022/11/16 05:48:50;;;;;;;6.03;3.92;;;10.60;99.90;;;;;;5086276;28;20101;-81
2022/11/16 05:51:16;;;;;;;5.95;3.40;;;10.60;99.90;;;;;;5082673;28;20483;-80
2022/11/16 05:53:43;;;;;;;6.95;4.15;;;10.60;99.90;;;;;;5111711;28;20047;-80
2022/11/16 05:56:09;;;;;;;5.35;3.58;;;10.60;99.90;;;;;;5095162;28;20081;-80
2022/11/16 05:58:35;;;;;;;5.60;3.72;;;10.60;99.90;;;;;;5093151;28;20123;-80
2022/11/16 06:01:01;;;;;;;6.38;4.00;;;10.60;99.90;;;;;;5108592;28;20086;-80
2022/11/16 06:03:30;;;;;;;6.65;3.75;;;10.60;99.90;;;;;;5111005;28;20121;-80
2022/11/16 06:05:57;;;;;;;7.20;3.75;;;10.60;99.90;;;;;;5095043;28;20047;-80
2022/11/16 06:08:23;;;;;;;6.72;3.80;;;10.60;99.90;;;;;;5070205;28;20245;-80
2022/11/16 06:10:49;;;;;;;7.63;3.72;;;10.60;99.90;;;;;;5091472;28;20079;-80
2022/11/16 06:13:14;;;;;;;6.68;3.72;;;10.80;99.90;;;;;;5110336;28;20117;-81
2022/11/16 06:15:40;;;;;;;6.57;3.70;;;10.60;99.90;;;;;;5094293;28;20039;-81
2022/11/16 06:18:07;;;;;;;6.18;3.90;;;9.30;99.90;;;;;;5095983;28;20055;-81
2022/11/16 06:20:33;;;;;;;7.97;3.35;;;10.50;99.90;;;;;;5115293;28;20142;-81
2022/11/16 06:22:59;;;;;;;5.88;3.40;;;10.50;99.90;;;;;;5107573;28;20051;-81
2022/11/16 06:25:25;;;;;;;7.07;3.95;;;10.50;99.90;;;;;;5095228;28;20043;-81
2022/11/16 06:27:51;;;;;;;5.43;3.33;;;10.40;99.90;;;;;;5095147;28;20044;-81
2022/11/16 06:30:17;;;;;;;4.95;2.67;;;10.40;99.90;;;;;;5092379;28;20049;-83
2022/11/16 06:32:43;;;;;;;6.53;3.13;;;10.40;99.90;;;;;;5114986;28;20448;-83
2022/11/16 06:35:09;;;;;;;5.43;3.00;;;10.30;99.90;;;;;;5095397;28;20094;-84
2022/11/16 06:37:35;;;;;;;5.30;3.08;;;10.30;99.90;;;;;;5094803;28;20048;-84
2022/11/16 06:40:01;;;;;;;5.57;3.72;;;10.30;99.90;;;;;;5103791;28;20051;-83
2022/11/16 06:42:27;;;;;;;5.22;3.30;;;10.30;99.90;;;;;;5109240;28;20067;-83
2022/11/16 06:44:52;;;;;;;6.28;3.40;;;10.20;99.90;;;;;;5078595;28;20040;-83
2022/11/16 06:47:18;;;;;;;4.47;2.83;;;10.60;99.90;;;;;;5077991;28;20058;-82
2022/11/16 06:49:44;;;;;;;5.72;3.35;;;10.20;99.90;;;;;;5080219;28;20088;-82
2022/11/16 06:52:10;;;;;;;6.93;3.60;;;10.30;99.90;;;;;;5091881;28;20047;-81
2022/11/16 06:54:35;;;;;;;4.82;3.05;;;10.30;99.90;;;;;;5085717;28;20478;-81
2022/11/16 06:57:01;;;;;;;4.40;2.60;;;10.10;99.90;;;;;;5085378;28;20028;-81
2022/11/16 06:59:27;;;;;;;4.68;2.70;;;10.10;99.90;;;;;;5077744;28;20043;-81
2022/11/16 07:01:52;;;;;;;8.48;4.60;;;10.20;99.90;;;;;;5078169;28;20491;-81
2022/11/16 07:04:18;;;;;;;7.70;4.40;;;10.10;99.90;;;;;;5095254;28;20127;-83
2022/11/16 07:06:44;;;;;;;10.43;6.20;;;10.10;99.90;;;;;;5061789;28;20079;-83
2022/11/16 07:09:09;;;;;;;8.57;5.40;;;10.10;99.90;;;;;;5078186;28;20070;-83
2022/11/16 07:11:36;;;;;;;6.97;4.20;;;10.10;99.90;;;;;;5078050;28;20051;-83
2022/11/16 07:14:02;;;;;;;7.03;4.30;;;10.10;99.90;;;;;;5079885;28;20123;-83
2022/11/16 07:16:28;;;;;;;9.52;4.43;;;10.10;99.90;;;;;;5103245;28;20136;-84
2022/11/16 07:18:56;;;;;;;8.77;4.93;;;10.10;99.90;;;;;;5082407;28;20055;-83
2022/11/16 07:21:22;;;;;;;8.93;5.07;;;10.10;99.90;;;;;;5094693;28;20036;-81
2022/11/16 07:23:48;;;;;;;6.45;4.43;;;10.10;99.90;;;;;;5094520;28;20088;-81
2022/11/16 07:26:13;;;;;;;7.28;4.70;;;10.10;99.90;;;;;;5106402;28;20122;-80
2022/11/16 07:28:39;;;;;;;9.43;4.05;;;10.10;99.90;;;;;;5065857;28;20032;-80
2022/11/16 07:31:07;;;;;;;8.27;3.70;;;10.00;99.90;;;;;;5077646;28;20048;-80
2022/11/16 07:33:34;;;;;;;8.52;4.50;;;10.10;99.90;;;;;;5077968;28;20044;-80
2022/11/16 07:36:08;;;;;;;7.05;4.68;;;10.10;99.90;;;;;;5092576;28;20032;-81
2022/11/16 07:38:34;;;;;;;6.85;4.32;;;10.10;99.90;;;;;;5073709;28;20043;-81
2022/11/16 07:41:19;;;;;;;7.35;4.38;;;10.00;99.90;;;;;;5056973;28;20041;-81
2022/11/16 07:43:45;;;;;;;8.40;5.10;;;10.10;99.90;;;;;;5081101;28;20130;-81
2022/11/16 07:46:17;;;;;;;9.82;4.97;;;10.10;99.90;;;;;;5015177;28;20047;-81
2022/11/16 07:48:43;;;;;;;14.20;5.40;;;10.10;99.90;;;;;;5084851;28;20625;-81
2022/11/16 07:51:12;;;;;;;8.80;5.28;;;10.10;99.90;;;;;;5093700;28;20048;-81
2022/11/16 07:53:39;;;;;;;8.57;4.88;;;10.20;99.90;;;;;;5094037;28;20040;-83
2022/11/16 07:56:06;;;;;;;10.70;6.00;;;10.10;99.90;;;;;;5078171;28;20047;-83
2022/11/16 07:58:32;;;;;;;6.95;4.72;;;10.10;99.90;;;;;;5113304;28;20501;-83
2022/11/16 08:01:06;;;;;;;6.72;3.90;;;10.10;99.90;;;;;;5114009;28;20036;-83
2022/11/16 08:03:33;;;;;;;8.77;4.80;;;10.10;99.90;;;;;;5100317;28;20431;-83
2022/11/16 08:06:05;;;;;;;8.15;4.32;;;10.10;99.90;;;;;;5087333;28;20039;-83
2022/11/16 08:08:31;;;;;;;6.13;3.47;;;10.10;99.90;;;;;;5084561;28;20079;-83
2022/11/16 08:11:06;;;;;;;8.75;5.18;;;10.10;99.90;;;;;;5083872;28;20487;-80
2022/11/16 08:13:33;;;;;;;9.55;4.88;;;10.10;99.90;;;;;;5094590;28;20041;-80
2022/11/16 08:16:09;;;;;;;7.63;4.85;;;10.10;99.90;;;;;;5093779;28;20395;-80
2022/11/16 08:18:36;;;;;;;6.35;3.75;;;10.10;99.90;;;;;;5092426;28;20036;-80
2022/11/16 08:21:03;;;;;;;8.48;4.40;;;10.10;99.90;;;;;;5091752;28;20108;-80
2022/11/16 08:23:30;;;;;;;9.05;5.15;;;10.00;99.90;;;;;;5058711;28;20047;-80
2022/11/16 08:26:05;;;;;;;8.48;4.95;;;10.00;99.90;;;;;;5072717;28;20518;-80
2022/11/16 08:28:32;;;;;;;7.03;4.05;;;10.00;99.90;;;;;;5092216;28;20544;-83
2022/11/16 08:30:58;;;;;;;6.70;4.20;;;10.00;99.90;;;;;;5091622;28;20040;-83
2022/11/16 08:33:25;;;;;;;9.90;5.40;;;10.10;99.90;;;;;;5075003;28;20032;-83
2022/11/16 08:35:53;;;;;;;8.13;5.22;;;10.10;99.90;;;;;;5091009;28;20043;-82
2022/11/16 08:38:19;;;;;;;10.68;5.32;;;10.10;99.90;;;;;;5072283;28;20110;-82
2022/11/16 08:40:45;;;;;;;8.23;4.90;;;10.10;99.90;;;;;;5080577;28;20083;-82
2022/11/16 08:43:11;;;;;;;8.95;5.63;;;10.10;99.90;;;;;;5066115;28;20491;-80
2022/11/16 08:45:37;;;;;;;8.80;4.97;;;10.20;99.90;;;;;;5059736;28;20044;-81
2022/11/16 08:48:04;;;;;;;9.35;4.85;;;10.20;99.90;;;;;;5083807;28;20047;-80
2022/11/16 08:50:30;;;;;;;9.38;4.95;;;10.20;99.90;;;;;;5081660;28;20047;-80
2022/11/16 08:52:56;;;;;;;8.82;5.03;;;10.30;99.90;;;;;;5082888;28;20444;-80
2022/11/16 08:55:23;;;;;;;7.57;4.70;;;10.30;99.90;;;;;;5058113;28;20114;-80
2022/11/16 08:57:49;;;;;;;9.63;5.13;;;10.40;99.90;;;;;;5091241;28;20043;-80
2022/11/16 09:00:15;;;;;;;9.57;4.90;;;10.40;99.90;;;;;;5074747;28;20486;-78
2022/11/16 09:02:41;;;;;;;8.52;4.78;;;10.40;99.90;;;;;;5074190;28;20051;-78
2022/11/16 09:05:10;;;;;;;7.22;4.50;;;;;;;;;;5092209;28;20043;-78
2022/11/16 09:07:36;;;;;;;8.00;4.63;;;;;;;;;;5091848;28;20512;-78
2022/11/16 09:10:02;;;;;;;10.48;4.75;;;;;;;;;;5092278;28;20036;-78
2022/11/16 09:12:28;;;;;;;7.30;4.72;;;10.60;99.90;;;;;;5090115;28;20035;-78
2022/11/16 09:14:54;;;;;;;8.20;4.57;;;10.50;99.90;;;;;;5072418;28;20045;-79
2022/11/16 09:17:19;;;;;;;8.18;4.95;;;10.50;99.90;;;;;;5055002;28;20382;-78
2022/11/16 09:19:45;;;;;;;8.63;4.90;;;10.60;99.90;;;;;;5077182;28;20116;-78
2022/11/16 09:22:11;;;;;;;7.65;4.40;;;10.70;99.90;;;;;;5101482;28;20050;-78
2022/11/16 09:24:36;;;;;;;11.05;5.78;;;10.70;99.90;;;;;;5090234;28;20085;-78
2022/11/16 09:27:02;;;;;;;11.73;4.88;;;10.70;99.90;;;;;;5084150;28;20051;-78
2022/11/16 09:29:30;;;;;;;9.40;4.68;;;10.80;99.90;;;;;;5076480;28;20667;-78
2022/11/16 09:31:57;;;;;;;8.57;4.43;;;12.00;99.90;;;;;;5059320;28;20380;-79
2022/11/16 09:34:24;;;;;;;7.95;4.35;;;10.80;99.90;;;;;;5091685;28;20044;-80
2022/11/16 09:36:50;;;;;;;11.32;5.63;;;;;;;;;;5071602;28;20033;-80
2022/11/16 09:39:16;;;;;;;9.18;5.03;;;;;;;;;;5081322;28;20503;-80
2022/11/16 09:42:02;;;;;;;9.95;6.18;;;;;;;;;;5087131;28;20040;-80
2022/11/16 09:44:38;;;;;;;12.30;5.45;;;;;;;;;;5074844;28;20058;-80
2022/11/16 09:47:08;;;;;;;9.20;5.45;;;11.60;99.90;;;;;;5094347;28;20044;-80
2022/11/16 09:49:46;;;;;;;8.23;5.28;;;11.40;99.90;;;;;;5093155;28;20048;-81
2022/11/16 09:52:23;;;;;;;9.85;5.85;;;11.40;99.90;;;;;;5096034;28;20054;-81
2022/11/16 09:54:51;;;;;;;9.95;5.00;;;11.30;99.90;;;;;;5095406;28;20036;-80
2022/11/16 09:57:20;;;;;;;10.63;5.20;;;11.30;99.90;;;;;;5094843;28;20789;-81
2022/11/16 09:59:52;;;;;;;10.93;6.13;;;11.30;99.90;;;;;;5096135;28;20069;-81
2022/11/16 10:02:30;;;;;;;13.10;6.47;;;11.40;99.90;;;;;;5095854;28;20036;-80
2022/11/16 10:05:14;;;;;;;11.98;6.35;;;;;;;;;;5078639;28;20048;-80
2022/11/16 10:07:52;;;;;;;12.15;5.65;;;;;;;;;;5108941;28;20043;-80
2022/11/16 10:10:23;;;;;;;12.85;6.32;;;;;;;;;;5115405;28;20131;-80
2022/11/16 10:12:53;;;;;;;13.82;4.93;;;;;;;;;;5099282;28;20040;-80
2022/11/16 10:15:42;;;;;;;8.02;5.15;;;;;;;;;;5095432;28;20043;-80
2022/11/16 10:18:37;;;;;;;6.93;4.65;;;13.00;99.90;;;;;;5081569;28;20062;-81
2022/11/16 10:21:08;;;;;;;11.05;4.65;;;12.90;99.90;;;;;;5062668;28;20106;-81
2022/11/16 10:23:52;;;;;;;11.25;5.05;;;13.00;99.90;;;;;;5059672;28;20491;-84
2022/11/16 10:26:33;;;;;;;7.00;4.28;;;12.70;99.90;;;;;;5058331;28;20119;-85
2022/11/16 10:29:23;;;;;;;7.22;3.47;;;12.70;99.90;;;;;;5057050;28;20040;-85
2022/11/16 10:31:56;;;;;;;11.10;4.10;;;;;;;;;;5074584;28;20079;-85
2022/11/16 10:34:25;;;;;;;7.47;4.03;;;;;;;;;;5058364;28;20055;-85
2022/11/16 10:36:56;;;;;;;7.10;3.40;;;14.60;99.90;;;;;;5058356;28;20048;-85
2022/11/16 10:39:24;;;;;;;7.68;3.83;;;;;;;;;;5075953;28;20072;-82
2022/11/16 10:41:50;;;;;;;9.15;3.47;;;;;;;;;;5075524;28;20052;-82
2022/11/16 10:44:19;;;;;;;7.18;4.15;;;;;;;;;;5075398;28;20048;-82
2022/11/16 10:46:50;;;;;;;8.82;4.13;;;;;;;;;;5075675;28;20043;-82
2022/11/16 10:49:35;;;;;;;6.70;3.38;;;;;;;;;;5079548;28;20048;-82
2022/11/16 10:52:02;;;;;;;6.95;3.00;;;;;;;;;;5078714;28;20044;-82
2022/11/16 10:54:28;;;;;;;5.55;3.13;;;;;;;;;;5078828;28;20043;-82
2022/11/16 10:57:05;;;;;;;6.68;3.05;;;;;;;;;;5059010;28;20036;-81
2022/11/16 10:59:44;;;;;;;8.50;3.42;;;;;;;;;;5057423;28;20155;-81
2022/11/16 11:02:28;;;;;;;6.10;3.33;;;;;;;;;;5046639;28;20043;-81
2022/11/16 11:05:01;;;;;;;6.80;3.08;;;;;;;;;;5042036;28;20041;-81
2022/11/16 11:07:32;;;;;;;5.05;3.08;;;;;;;;;;5068105;28;20127;-81
2022/11/16 11:09:58;;;;;;;5.65;2.72;;;;;;;;;;5056556;28;20068;-81
2022/11/16 11:12:43;;;;;;;3.83;2.28;;;;;;;;;;5072574;28;20028;-81
2022/11/16 11:15:24;;;;;;;5.05;2.55;;;;;;;;;;5056003;28;20041;-81
2022/11/16 11:17:50;;;;;;;8.30;2.60;;;;;;;;;;5036757;28;20127;-81
2022/11/16 11:20:16;;;;;;;6.18;3.45;;;;;;;;;;5048993;28;20056;-81
2022/11/16 11:22:43;;;;;;;6.97;2.42;;;;;;;;;;5090014;28;20044;-81
2022/11/16 11:25:20;;;;;;;6.15;2.33;;;;;;;;;;5076157;28;20454;-81
2022/11/16 11:27:46;;;;;;;4.63;2.53;;;;;;;;;;5074110;28;20047;-81
2022/11/16 11:30:18;;;;;;;4.07;2.10;;;;;;;;;;5089303;28;20087;-81
2022/11/16 11:32:45;;;;;;;3.83;2.50;;;;;;;;;;5075988;28;20502;-81
2022/11/16 11:35:22;;;;;;;5.78;2.00;;;;;;;;;;5092997;28;20054;-81
2022/11/16 11:37:50;;;;;;;4.90;2.63;;;;;;;;;;5078131;28;20072;-81
2022/11/16 11:40:27;;;;;;;5.55;2.00;;;14.30;99.90;;;;;;5093222;28;20044;-80
2022/11/16 11:42:58;;;;;;;8.45;2.20;;;14.10;99.90;;;;;;5084623;28;20044;-80
2022/11/16 11:45:33;;;;;;;5.90;2.50;;;13.90;99.90;;;;;;5072571;28;20083;-80
2022/11/16 11:48:05;;;;;;;3.53;2.40;;;13.70;99.90;;;;;;5096837;28;20465;-80
2022/11/16 11:50:48;;;;;;;8.05;2.10;;;13.60;99.90;;;;;;5058432;28;20067;-80
2022/11/16 11:53:26;;;;;;;3.17;1.95;;;13.60;99.90;;;;;;5074194;28;20034;-80
2022/11/16 11:55:57;;;;;;;4.85;2.38;;;13.30;99.90;;;;;;5066969;28;20165;-81
2022/11/16 11:58:28;;;;;;;5.32;2.70;;;13.30;99.90;;;;;;5085700;28;20031;-81
2022/11/16 12:01:28;;;;;;;7.28;2.63;;;13.10;99.90;;;;;;5080694;28;20049;-81
2022/11/16 12:04:12;;;;;;;5.63;2.63;;;13.00;99.90;;;;;;5089729;28;20066;-81
2022/11/16 12:06:41;;;;;;;8.68;2.58;;;;;;;;;;5081695;28;20043;-80
2022/11/16 12:09:13;;;;;;;4.80;2.30;;;;;;;;;;5092031;28;20050;-81
2022/11/16 12:11:42;;;;;;;5.25;2.42;;;;;;;;;;5091250;28;20085;-81
2022/11/16 12:14:31;;;;;;;4.82;1.98;;;;;;;;;;5075092;28;20075;-81
2022/11/16 12:17:06;;;;;;;7.97;2.22;;;;;;;;;;5059020;28;20052;-80
2022/11/16 12:19:38;;;;;;;5.57;2.20;;;;;;;;;;5076386;28;20052;-80
2022/11/16 12:22:10;;;;;;;4.10;1.88;;;;;;;;;;5075552;28;20051;-81
2022/11/16 12:24:46;;;;;;;5.68;2.50;;;;;;;;;;5093246;28;20040;-81
2022/11/16 12:27:12;;;;;;;3.67;2.00;;;;;;;;;;5082903;28;20062;-82
2022/11/16 12:29:44;;;;;;;4.70;2.25;;;;;;;;;;5076456;28;20506;-81
2022/11/16 12:32:18;;;;;;;6.15;2.30;;;;;;;;;;5076997;28;20042;-82
2022/11/16 12:34:55;;;;;;;6.20;2.20;;;;;;;;;;5078283;22;20052;-85
2022/11/16 12:37:21;;;;;;;5.82;1.88;;;;;;;;;;5049316;28;20453;-82
2022/11/16 12:39:59;;;;;;;5.45;1.60;;;;;;;;;;5056145;28;20055;-81
2022/11/16 12:42:31;;;;;;;6.00;1.85;;;;;;;;;;5073090;28;20048;-81
2022/11/16 12:45:17;;;;;;;4.63;1.65;;;;;;;;;;5052394;28;20037;-81
2022/11/16 12:47:46;;;;;;;5.50;1.70;;;;;;;;;;5053269;28;20084;-81
2022/11/16 12:50:31;;;;;;;7.45;1.95;;;;;;;;;;5056691;28;20040;-81
2022/11/16 12:53:03;;;;;;;4.50;1.73;;;;;;;;;;5070292;28;20044;-84
2022/11/16 12:55:32;;;;;;;3.35;1.80;;;;;;;;;;5052735;28;20389;-85
2022/11/16 12:58:07;;;;;;;5.45;1.65;;;;;;;;;;5052587;28;20044;-85
2022/11/16 13:00:53;;;;;;;5.47;1.70;;;;;;;;;;5052552;28;20045;-85
2022/11/16 13:03:23;;;;;;;5.28;1.88;;;;;;;;;;5032738;28;20059;-85
2022/11/16 13:05:59;;;;;;;2.72;1.65;;;;;;;;;;5071925;28;20117;-85
2022/11/16 13:08:43;;;;;;;4.95;1.75;;;;;;;;;;5040318;28;20400;-85
2022/11/16 13:11:19;;;;;;;3.55;1.83;;;;;;;;;;5067698;28;20120;-85
2022/11/16 13:13:46;;;;;;;3.17;1.50;;;;;;;;;;5052059;28;20096;-86
2022/11/16 13:16:16;;;;;;;5.05;2.25;;;;;;;;;;5051760;28;20037;-85
2022/11/16 13:18:43;;;;;;;6.43;2.05;;;;;;;;;;5085901;28;20045;-85
2022/11/16 13:21:12;;;;;;;7.15;1.75;;;;;;;;;;5052730;28;20036;-85
2022/11/16 13:23:44;;;;;;;5.13;2.33;;;;;;;;;;5053738;28;20083;-85
2022/11/16 13:26:23;;;;;;;4.35;2.35;;;;;;;;;;5069551;28;20040;-85
2022/11/16 13:28:57;;;;;;;9.82;2.40;;;;;;;;;;5045560;28;20167;-85
2022/11/16 13:31:30;;;;;;;4.88;2.38;;;;;;;;;;5051812;28;20532;-85
2022/11/16 13:33:59;;;;;;;6.65;1.88;;;;;;;;;;5051941;28;20057;-84
2022/11/16 13:36:46;;;;;;;4.53;2.10;;;;;;;;;;5051891;28;20048;-85
2022/11/16 13:39:14;;;;;;;2.75;1.50;;;;;;;;;;5062781;28;20398;-85
2022/11/16 13:41:41;;;;;;;5.40;1.40;;;;;;;;;;5052462;28;20334;-85
2022/11/16 13:44:19;;;;;;;6.45;2.13;;;;;;;;;;5033720;28;20041;-85
2022/11/16 13:46:51;;;;;;;3.60;1.70;;;;;;;;;;5052552;28;20045;-85
2022/11/16 13:49:22;;;;;;;5.93;2.25;;;;;;;;;;5050366;28;20059;-85
2022/11/16 13:51:56;;;;;;;4.53;1.67;;;;;;;;;;5051918;28;20388;-85
2022/11/16 13:54:29;;;;;;;4.60;1.75;;;;;;;;;;5035344;28;20048;-85
2022/11/16 13:56:55;;;;;;;5.05;1.60;;;;;;;;;;5051413;28;20056;-84
2022/11/16 13:59:32;;;;;;;4.85;2.10;;;;;;;;;;5050769;28;20118;-85
2022/11/16 14:02:00;;;;;;;6.32;1.92;;;;;;;;;;5049700;28;20041;-85
2022/11/16 14:04:34;;;;;;;5.13;1.60;;;;;;;;;;5049773;28;20406;-84
2022/11/16 14:07:01;;;;;;;8.18;2.28;;;;;;;;;;5051369;28;20044;-85
2022/11/16 14:09:50;;;;;;;4.15;1.63;;;;;;;;;;5035066;28;20041;-85
2022/11/16 14:12:35;;;;;;;6.45;2.33;;;;;;;;;;5051496;28;20037;-84